Time;durP1;ratioP1;P1;durP2;ratioP2;P2;SDS_P1;SDS_P2;PMS_P1;PMS_P2;Temp;Humidity;BMP_temperature;BMP_pressure;BME280_temperature;BME280_humidity;BME280_pressure;Samples;Min_cycle;Max_cycle;Signal;HPM_P1;HPM_P2
2022/06/25 00:01:31;;;;;;;6.75;6.15;;;;;;;19.64;65.68;94742.13;5095895;28;20200;-71
2022/06/25 00:03:57;;;;;;;8.45;7.72;;;;;;;19.62;65.24;94738.16;5096547;28;20192;-71
2022/06/25 00:06:23;;;;;;;10.60;9.50;;;;;;;19.62;65.33;94735.38;5096784;28;20180;-71
2022/06/25 00:08:50;;;;;;;9.23;8.43;;;;;;;19.62;65.32;94735.38;5096711;28;20197;-71
2022/06/25 00:13:59;;;;;;;9.45;8.65;;;;;;;19.62;66.07;94721.38;5073733;28;20216;-71
2022/06/25 00:16:27;;;;;;;8.63;7.57;;;;;;;19.62;65.68;94715.78;5096170;28;20208;-71
2022/06/25 00:18:55;;;;;;;6.75;6.07;;;;;;;19.64;65.52;94714.16;5095252;28;20601;-71
2022/06/25 00:21:21;;;;;;;7.43;6.70;;;;;;;19.67;64.60;94712.53;5095602;28;20204;-71
2022/06/25 00:23:48;;;;;;;6.05;5.57;;;;;;;19.68;65.26;94725.31;5095819;28;20196;-71
2022/06/25 00:26:15;;;;;;;6.22;5.65;;;;;;;19.67;65.64;94729.31;5096208;28;20193;-70
2022/06/25 00:28:42;;;;;;;6.78;6.20;;;;;;;19.67;65.81;94723.72;5094988;28;20228;-70
2022/06/25 00:31:08;;;;;;;5.78;5.28;;;;;;;19.67;64.53;94721.72;5096316;28;20177;-70
2022/06/25 00:33:35;;;;;;;5.00;4.60;;;;;;;19.67;64.50;94726.53;5095648;28;20211;-70
2022/06/25 00:36:04;;;;;;;5.38;4.90;;;;;;;19.68;65.03;94730.91;5096118;28;20208;-70
2022/06/25 00:38:31;;;;;;;6.57;5.68;;;;;;;19.67;64.81;94726.53;5095238;28;20203;-70
2022/06/25 00:40:58;;;;;;;6.25;5.65;;;;;;;19.64;65.92;94719.75;5095370;28;20192;-70
2022/06/25 00:43:24;;;;;;;7.65;6.95;;;;;;;19.58;66.21;94715.03;5095716;28;20544;-70
2022/06/25 00:45:51;;;;;;;6.43;5.78;;;;;;;19.52;66.34;94705.53;5096037;28;20191;-70
2022/06/25 00:48:18;;;;;;;6.57;5.88;;;;;;;19.44;66.27;94707.63;5096318;28;20195;-70
2022/06/25 00:50:44;;;;;;;5.90;5.40;;;;;;;19.39;66.54;94708.06;5096022;28;20185;-70
2022/06/25 00:53:14;;;;;;;6.47;5.88;;;;;;;19.34;66.52;94711.34;5094958;28;20200;-70
2022/06/25 00:55:41;;;;;;;6.53;5.72;;;;;;;19.32;66.58;94722.13;5094942;28;20196;-70
2022/06/25 00:58:12;;;;;;;5.97;5.57;;;;;;;19.32;67.09;94720.16;5095818;28;20208;-70
2022/06/25 01:00:40;;;;;;;6.63;5.88;;;;;;;19.33;67.33;94720.94;5094985;28;20192;-70
2022/06/25 01:03:07;;;;;;;6.28;5.78;;;;;;;19.37;66.76;94711.28;5094862;28;20200;-70
2022/06/25 01:05:34;;;;;;;6.60;6.10;;;;;;;19.39;66.94;94708.88;5094515;28;20215;-71
2022/06/25 01:08:01;;;;;;;6.82;6.32;;;;;;;19.42;66.94;94715.63;5095864;28;20192;-71
2022/06/25 01:10:29;;;;;;;6.85;6.32;;;;;;;19.46;67.16;94721.97;5095680;28;20185;-71
2022/06/25 01:12:56;;;;;;;8.20;6.45;;;;;;;19.49;66.62;94718.31;5094731;28;20192;-71
2022/06/25 01:15:23;;;;;;;7.00;6.28;;;;;;;19.51;66.64;94717.94;5094379;28;20192;-71
2022/06/25 01:17:51;;;;;;;6.72;6.03;;;;;;;19.48;66.26;94716.75;5094809;28;20216;-71
2022/06/25 01:20:20;;;;;;;6.50;5.88;;;;;;;19.44;66.11;94713.22;5094954;28;20200;-71
2022/06/25 01:22:48;;;;;;;6.72;6.10;;;;;;;19.40;66.28;94709.66;5095548;28;20185;-71
2022/06/25 01:25:16;;;;;;;6.85;6.15;;;;;;;19.41;66.21;94712.03;5094562;28;20199;-71
2022/06/25 01:27:43;;;;;;;6.53;5.93;;;;;;;19.38;66.60;94717.66;5095185;28;20232;-71
2022/06/25 01:30:12;;;;;;;6.53;5.97;;;;;;;19.38;66.31;94709.28;5094729;28;20199;-71
2022/06/25 01:32:39;;;;;;;7.38;6.07;;;;;;;19.38;66.26;94714.88;5094629;28;20200;-71
2022/06/25 01:35:07;;;;;;;6.93;6.03;;;;;;;19.36;66.11;94712.50;5094660;28;20192;-71
2022/06/25 01:37:34;;;;;;;6.93;6.22;;;;;;;19.36;65.70;94711.72;5094295;28;20305;-70
2022/06/25 01:40:04;;;;;;;6.40;5.80;;;;;;;19.35;66.33;94716.50;5095276;28;20184;-70
2022/06/25 01:45:15;;;;;;;6.75;6.18;;;;;;;19.30;66.25;94721.78;5095048;28;20184;-70
2022/06/25 01:47:42;;;;;;;6.43;5.88;;;;;;;19.30;66.15;94719.75;5094445;28;20559;-70
2022/06/25 01:50:10;;;;;;;5.97;5.53;;;;;;;19.25;65.81;94717.44;5094766;28;20199;-70
2022/06/25 01:52:37;;;;;;;6.50;5.88;;;;;;;19.25;66.15;94717.44;5095275;28;20185;-70
2022/06/25 01:55:06;;;;;;;6.30;5.75;;;;;;;19.23;66.64;94717.84;5095084;28;20184;-70
2022/06/25 01:57:33;;;;;;;6.85;6.25;;;;;;;19.27;66.25;94714.22;5095083;28;20208;-71
2022/06/25 01:59:59;;;;;;;6.30;5.80;;;;;;;19.24;66.17;94727.00;5094225;28;20199;-70
2022/06/25 02:02:27;;;;;;;6.82;6.22;;;;;;;19.22;66.77;94730.25;5094178;28;20200;-70
2022/06/25 02:04:53;;;;;;;5.85;5.43;;;;;;;19.26;66.56;94735.00;5094149;28;20193;-70
2022/06/25 02:07:20;;;;;;;6.60;6.00;;;;;;;19.24;66.87;94741.81;5094110;28;20192;-70
2022/06/25 02:09:47;;;;;;;6.55;6.00;;;;;;;19.22;66.97;94754.63;5094185;28;20207;-70
2022/06/25 02:12:15;;;;;;;5.75;5.25;;;;;;;19.24;66.37;94753.00;5094734;28;20200;-70
2022/06/25 02:14:42;;;;;;;6.20;5.70;;;;;;;19.23;65.82;94734.63;5093787;28;20204;-70
2022/06/25 02:17:09;;;;;;;6.38;5.88;;;;;;;19.23;65.98;94739.41;5093971;28;20212;-70
2022/06/25 02:19:36;;;;;;;6.53;5.90;;;;;;;19.20;66.32;94731.84;5094061;28;20188;-70
2022/06/25 02:22:03;;;;;;;5.90;5.40;;;;;;;19.16;66.66;94737.50;5094843;28;20188;-70
2022/06/25 02:24:30;;;;;;;6.28;5.70;;;;;;;19.10;66.74;94741.16;5094190;28;20189;-71
2022/06/25 02:26:57;;;;;;;6.20;5.70;;;;;;;19.07;66.78;94736.41;5093812;28;20243;-70
2022/06/25 02:29:25;;;;;;;6.30;5.70;;;;;;;19.07;67.10;94742.00;5093952;28;20223;-70
2022/06/25 02:31:52;;;;;;;6.65;5.80;;;;;;;19.05;66.94;94747.22;5094826;28;20188;-70
2022/06/25 02:34:19;;;;;;;6.22;5.63;;;;;;;19.00;67.09;94749.25;5094824;28;20196;-70
2022/06/25 02:36:45;;;;;;;5.95;5.35;;;;;;;18.98;67.00;94756.47;5094058;28;20200;-70
2022/06/25 02:39:12;;;;;;;5.95;5.45;;;;;;;19.00;67.11;94765.22;5094442;28;20196;-70
2022/06/25 02:41:39;;;;;;;6.78;5.47;;;;;;;19.00;67.08;94763.22;5093888;28;20200;-70
2022/06/25 02:44:06;;;;;;;5.57;5.07;;;;;;;19.02;66.88;94760.00;5097972;28;20192;-71
2022/06/25 02:46:34;;;;;;;5.75;5.32;;;;;;;19.03;66.51;94755.19;5098457;28;20189;-70
2022/06/25 02:49:01;;;;;;;5.68;5.28;;;;;;;19.05;66.24;94752.81;5098402;28;20188;-70
2022/06/25 02:51:28;;;;;;;6.38;5.78;;;;;;;19.04;66.10;94751.22;5097331;28;20203;-70
2022/06/25 02:53:55;;;;;;;5.20;4.80;;;;;;;19.03;66.12;94744.84;5098421;28;20503;-70
2022/06/25 02:59:06;;;;;;;6.18;5.47;;;;;;;19.05;66.29;94747.22;5097924;28;20180;-70
2022/06/25 03:01:35;;;;;;;5.43;4.93;;;;;;;19.08;66.16;94741.59;5097158;28;20200;-70
2022/06/25 03:04:01;;;;;;;6.90;5.32;;;;;;;19.06;66.16;94744.00;5097831;28;20608;-70
2022/06/25 03:06:28;;;;;;;6.22;5.28;;;;;;;19.04;66.08;94749.22;5097134;28;20195;-70
2022/06/25 03:08:56;;;;;;;6.13;5.38;;;;;;;19.03;66.22;94746.81;5096963;28;20212;-70
2022/06/25 03:11:23;;;;;;;5.85;5.35;;;;;;;19.00;66.67;94749.25;5097996;28;20223;-70
2022/06/25 03:13:49;;;;;;;6.15;5.55;;;;;;;19.00;67.05;94746.47;5097904;28;20181;-70
2022/06/25 03:16:16;;;;;;;5.95;5.35;;;;;;;19.02;66.88;94746.03;5097513;28;20188;-70
2022/06/25 03:18:44;;;;;;;5.55;5.15;;;;;;;19.04;66.72;94754.00;5097423;28;20656;-70
2022/06/25 03:21:11;;;;;;;5.60;5.13;;;;;;;19.03;66.78;94760.78;5097631;28;20219;-70
2022/06/25 03:23:38;;;;;;;6.72;5.88;;;;;;;18.99;66.83;94758.03;5097490;28;20185;-70
2022/06/25 03:26:05;;;;;;;5.93;5.45;;;;;;;18.98;66.79;94760.03;5097106;28;20255;-70
2022/06/25 03:28:32;;;;;;;6.05;5.45;;;;;;;19.00;67.08;94756.84;5097186;28;20228;-70
2022/06/25 03:30:58;;;;;;;6.40;5.80;;;;;;;19.02;67.12;94754.41;5097550;28;20196;-70
2022/06/25 03:33:25;;;;;;;6.50;5.90;;;;;;;19.05;66.48;94758.38;5097486;28;20188;-71
2022/06/25 03:35:54;;;;;;;7.22;6.32;;;;;;;19.06;66.90;94748.78;5096385;28;20219;-71
2022/06/25 03:38:21;;;;;;;8.73;8.02;;;;;;;19.08;66.65;94746.38;5097033;28;20513;-71
2022/06/25 03:40:48;;;;;;;8.43;7.70;;;;;;;19.08;67.47;94758.34;5096413;28;20189;-71
2022/06/25 03:43:16;;;;;;;9.15;8.25;;;;;;;19.10;66.67;94753.16;5095991;28;20200;-71
2022/06/25 03:45:43;;;;;;;8.38;7.55;;;;;;;19.13;67.30;94757.09;5097440;28;20201;-71
2022/06/25 03:48:10;;;;;;;9.02;8.05;;;;;;;19.15;67.41;94749.88;5096375;28;20189;-71
2022/06/25 03:50:37;;;;;;;9.00;8.18;;;;;;;19.16;67.46;94739.50;5096873;28;20267;-71
2022/06/25 03:53:05;;;;;;;8.75;7.97;;;;;;;19.18;67.47;94739.88;5096952;28;20200;-71
2022/06/25 03:55:32;;;;;;;7.88;7.18;;;;;;;19.19;66.92;94728.28;5096716;28;20200;-71
2022/06/25 03:57:59;;;;;;;9.35;7.30;;;;;;;19.23;66.96;94736.63;5096746;28;20215;-71
2022/06/25 04:00:25;;;;;;;8.85;7.47;;;;;;;19.23;67.20;94729.03;5096941;28;20184;-71
2022/06/25 04:02:52;;;;;;;8.20;7.50;;;;;;;19.24;66.75;94725.03;5097013;28;20185;-71
2022/06/25 04:05:19;;;;;;;8.00;7.05;;;;;;;19.27;66.76;94733.78;5095948;28;20193;-71
2022/06/25 04:07:46;;;;;;;8.10;7.30;;;;;;;19.27;66.95;94737.38;5096770;28;20193;-71
2022/06/25 04:10:14;;;;;;;9.98;7.93;;;;;;;19.28;67.20;94746.53;5097234;28;20208;-71
2022/06/25 04:12:40;;;;;;;8.05;7.32;;;;;;;19.28;67.26;94761.34;5096708;28;20198;-70
2022/06/25 04:15:08;;;;;;;8.32;7.53;;;;;;;19.28;68.12;94764.13;5096320;28;20647;-70
2022/06/25 04:17:35;;;;;;;8.30;7.60;;;;;;;19.30;67.43;94760.91;5095646;28;20216;-71
2022/06/25 04:20:02;;;;;;;8.30;7.60;;;;;;;19.32;67.18;94752.88;5096267;28;20184;-71
2022/06/25 04:22:28;;;;;;;7.75;7.15;;;;;;;19.29;67.10;94756.53;5096606;28;20199;-71
2022/06/25 04:24:55;;;;;;;7.95;7.28;;;;;;;19.31;67.70;94760.50;5095555;28;20207;-70
2022/06/25 04:30:10;;;;;;;7.70;6.97;;;;;;;19.41;67.99;94764.38;5096583;28;20177;-71
2022/06/25 04:32:37;;;;;;;8.20;7.43;;;;;;;19.43;67.79;94753.59;5095167;28;20188;-71
2022/06/25 04:35:06;;;;;;;7.50;6.90;;;;;;;19.44;67.46;94755.94;5096103;28;20488;-71
2022/06/25 04:37:33;;;;;;;8.00;7.15;;;;;;;19.42;67.64;94747.16;5096100;28;20208;-71
2022/06/25 04:40:00;;;;;;;7.68;7.00;;;;;;;19.43;67.58;94756.38;5096156;28;20192;-71
2022/06/25 04:42:28;;;;;;;7.85;7.05;;;;;;;19.44;68.17;94760.75;5096161;28;20207;-71
2022/06/25 04:44:55;;;;;;;8.15;7.20;;;;;;;19.46;67.96;94763.91;5095290;28;20188;-71
2022/06/25 04:47:22;;;;;;;8.15;7.45;;;;;;;19.50;68.01;94767.47;5095151;28;20201;-71
2022/06/25 04:49:49;;;;;;;9.93;7.40;;;;;;;19.53;67.64;94774.22;5095985;28;20181;-71
2022/06/25 04:52:16;;;;;;;8.05;7.25;;;;;;;19.53;67.78;94765.84;5095955;28;20249;-71
2022/06/25 04:54:43;;;;;;;8.82;7.97;;;;;;;19.55;67.87;94775.41;5096024;28;20192;-71
2022/06/25 04:57:09;;;;;;;9.90;8.90;;;;;;;19.57;68.42;94774.97;5094626;28;20609;-71
2022/06/25 04:59:37;;;;;;;9.38;8.52;;;;;;;19.58;68.62;94771.78;5095703;28;20204;-71
2022/06/25 05:02:05;;;;;;;9.32;8.45;;;;;;;19.58;68.24;94777.38;5095488;28;20199;-71
2022/06/25 05:04:32;;;;;;;9.82;8.23;;;;;;;19.59;68.28;94784.53;5094542;28;20192;-71
2022/06/25 05:06:59;;;;;;;9.27;8.30;;;;;;;19.56;67.94;94779.78;5094699;28;20204;-71
2022/06/25 05:09:26;;;;;;;8.90;8.18;;;;;;;19.56;67.77;94773.38;5094712;28;20549;-72
2022/06/25 05:11:53;;;;;;;8.95;8.05;;;;;;;19.61;67.76;94778.53;5095800;28;20200;-71
2022/06/25 05:14:20;;;;;;;9.70;8.32;;;;;;;19.62;67.18;94783.72;5095698;28;20181;-71
2022/06/25 05:16:49;;;;;;;9.70;8.05;;;;;;;19.63;67.49;94774.13;5094508;28;20192;-71
2022/06/25 05:19:15;;;;;;;8.90;8.00;;;;;;;19.64;67.69;94774.91;5095492;28;20209;-71
2022/06/25 05:21:42;;;;;;;10.15;8.40;;;;;;;19.67;67.71;94771.28;5094719;28;20204;-73
2022/06/25 05:24:09;;;;;;;8.23;7.50;;;;;;;19.73;67.94;94777.22;5095190;28;20530;-72
2022/06/25 05:26:36;;;;;;;9.00;8.20;;;;;;;19.77;67.79;94775.94;5095355;28;20612;-72
2022/06/25 05:29:03;;;;;;;8.32;7.63;;;;;;;19.80;67.67;94775.13;5054272;28;20198;-72
2022/06/25 05:31:30;;;;;;;9.32;8.32;;;;;;;19.82;67.67;94772.69;5054100;28;20215;-72
2022/06/25 05:34:00;;;;;;;7.60;6.90;;;;;;;19.84;66.98;94780.66;5055299;28;20194;-72
2022/06/25 05:36:26;;;;;;;8.02;7.28;;;;;;;19.83;66.67;94779.88;5053886;28;20218;-72
2022/06/25 05:38:53;;;;;;;8.02;7.32;;;;;;;19.86;66.67;94783.81;5053776;28;20221;-72
2022/06/25 05:41:20;;;;;;;8.60;7.20;;;;;;;19.87;66.96;94779.84;5054695;28;20204;-72
2022/06/25 05:43:47;;;;;;;8.55;7.75;;;;;;;19.90;67.11;94781.81;5055204;28;20201;-72
2022/06/25 05:46:13;;;;;;;8.60;7.35;;;;;;;19.94;67.42;94785.34;5055141;28;20205;-72
2022/06/25 05:48:40;;;;;;;9.93;8.18;;;;;;;19.95;67.41;94784.13;5054704;28;20193;-72
2022/06/25 05:51:09;;;;;;;9.18;8.27;;;;;;;19.98;67.90;94788.88;5054084;28;20209;-72
2022/06/25 05:53:36;;;;;;;8.20;7.55;;;;;;;20.01;68.15;94787.22;5054987;28;20293;-72
2022/06/25 05:56:02;;;;;;;9.95;8.60;;;;;;;20.02;68.20;94792.41;5054960;28;20190;-72
2022/06/25 05:58:29;;;;;;;9.05;8.15;;;;;;;20.02;68.06;94795.22;5054873;28;20205;-72
2022/06/25 06:00:56;;;;;;;9.43;8.25;;;;;;;20.01;68.53;94796.44;5054847;28;20190;-72
2022/06/25 06:03:23;;;;;;;9.18;8.07;;;;;;;20.04;68.82;94792.78;5054829;28;20182;-72
2022/06/25 06:05:50;;;;;;;8.82;8.00;;;;;;;20.07;68.31;94785.56;5054083;28;20205;-72
2022/06/25 06:08:18;;;;;;;9.48;8.15;;;;;;;20.05;67.01;94785.97;5053572;28;20194;-72
2022/06/25 06:10:45;;;;;;;10.48;8.02;;;;;;;20.04;67.14;94784.38;5053833;28;20197;-72
2022/06/25 06:13:12;;;;;;;8.95;8.05;;;;;;;20.05;66.81;94776.78;5054705;28;20194;-72
2022/06/25 06:15:39;;;;;;;8.90;8.10;;;;;;;20.06;67.07;94776.38;5054519;28;20213;-72
2022/06/25 06:18:06;;;;;;;9.85;7.95;;;;;;;20.07;66.77;94788.34;5055932;28;20553;-72
2022/06/25 06:20:33;;;;;;;8.10;7.25;;;;;;;20.11;67.06;94784.28;5058553;28;20197;-72
2022/06/25 06:23:01;;;;;;;7.95;7.25;;;;;;;20.18;66.61;94789.00;5058205;28;20618;-74
2022/06/25 06:25:30;;;;;;;7.35;6.53;;;;;;;20.18;65.61;94789.78;5058445;28;20288;-72
2022/06/25 06:27:56;;;;;;;8.15;7.43;;;;;;;20.23;65.70;94787.75;5080549;28;20229;-72
2022/06/25 06:30:24;;;;;;;7.72;7.03;;;;;;;20.26;65.09;94775.66;5097741;28;20196;-72
2022/06/25 06:32:51;;;;;;;7.22;6.63;;;;;;;20.27;65.28;94780.06;5098408;28;20195;-72
2022/06/25 06:35:17;;;;;;;7.97;7.18;;;;;;;20.30;64.96;94779.22;5097680;28;20207;-72
2022/06/25 06:37:44;;;;;;;8.60;7.90;;;;;;;20.34;65.39;94777.19;5098025;28;20203;-72
2022/06/25 06:40:11;;;;;;;7.85;7.25;;;;;;;20.39;65.22;94782.28;5097683;28;20213;-72
2022/06/25 06:42:40;;;;;;;9.50;8.35;;;;;;;20.39;64.86;94783.06;5098049;28;20511;-72
2022/06/25 06:45:07;;;;;;;7.70;7.10;;;;;;;20.43;64.92;94781.00;5098408;28;20189;-72
2022/06/25 06:47:34;;;;;;;8.57;6.97;;;;;;;20.49;64.46;94786.94;5098330;28;20189;-72
2022/06/25 06:50:01;;;;;;;7.53;6.82;;;;;;;20.51;64.01;94783.72;5097476;28;20184;-72
2022/06/25 06:52:27;;;;;;;7.82;7.10;;;;;;;20.53;64.05;94787.69;5097871;28;20200;-72
2022/06/25 06:54:54;;;;;;;8.43;7.72;;;;;;;20.53;63.74;94790.50;5097246;28;20208;-72
2022/06/25 06:57:21;;;;;;;8.00;7.13;;;;;;;20.52;64.08;94788.94;5098135;28;20191;-72
2022/06/25 06:59:49;;;;;;;7.00;6.32;;;;;;;20.57;64.50;94790.44;5097753;28;20547;-73
2022/06/25 07:02:16;;;;;;;6.63;6.13;;;;;;;20.64;63.09;94781.94;5098442;28;20196;-72
2022/06/25 07:04:43;;;;;;;7.13;6.43;;;;;;;20.70;62.95;94785.84;5097371;28;20519;-72
2022/06/25 07:07:10;;;;;;;7.43;6.60;;;;;;;20.75;63.42;94790.16;5096756;28;20211;-73
2022/06/25 07:09:36;;;;;;;9.55;7.20;;;;;;;20.79;62.19;94786.06;5097060;28;20199;-73
2022/06/25 07:12:04;;;;;;;7.72;6.45;;;;;;;20.79;62.24;94779.69;5097386;28;20192;-73
2022/06/25 07:14:30;;;;;;;5.97;5.47;;;;;;;20.78;62.73;94784.50;5096704;28;20204;-74
2022/06/25 07:16:59;;;;;;;6.85;6.25;;;;;;;20.83;63.13;94769.19;5096713;28;20195;-74
2022/06/25 07:19:26;;;;;;;6.78;6.18;;;;;;;20.90;63.42;94774.69;5097323;28;20207;-73
2022/06/25 07:21:54;;;;;;;6.82;5.88;;;;;;;20.97;62.86;94773.78;5097005;28;20200;-73
2022/06/25 07:24:21;;;;;;;7.38;6.78;;;;;;;21.02;63.04;94768.44;5097170;28;20502;-73
2022/06/25 07:26:48;;;;;;;7.68;6.97;;;;;;;21.05;62.28;94767.59;5097357;28;20215;-73
2022/06/25 07:29:15;;;;;;;8.52;7.72;;;;;;;21.06;62.20;94772.00;5096891;28;20180;-73
2022/06/25 07:31:42;;;;;;;7.45;6.75;;;;;;;21.10;62.32;94769.91;5096848;28;20192;-73
2022/06/25 07:34:10;;;;;;;7.85;7.05;;;;;;;21.14;61.77;94773.44;5096483;28;20635;-73
2022/06/25 07:36:38;;;;;;;7.65;7.05;;;;;;;21.15;61.85;94777.03;5096503;28;20199;-73
2022/06/25 07:39:05;;;;;;;8.50;6.55;;;;;;;21.19;62.35;94779.78;5096455;28;20212;-73
2022/06/25 07:41:31;;;;;;;6.72;6.13;;;;;;;21.26;62.35;94782.47;5096028;28;20205;-73
2022/06/25 07:43:58;;;;;;;6.55;6.05;;;;;;;21.38;62.07;94781.84;5096295;28;20215;-73
2022/06/25 07:46:25;;;;;;;6.78;6.18;;;;;;;21.47;62.05;94781.28;5096691;28;20242;-74
2022/06/25 07:48:52;;;;;;;6.85;6.20;;;;;;;21.59;61.66;94783.44;5096444;28;20191;-72
2022/06/25 07:54:04;;;;;;;7.57;6.88;;;;;;;21.85;61.55;94778.91;5095943;28;20634;-74
2022/06/25 07:56:31;;;;;;;7.60;6.90;;;;;;;21.90;61.16;94775.59;5097040;28;20184;-75
2022/06/25 07:58:57;;;;;;;8.23;6.88;;;;;;;21.93;61.42;94776.72;5096647;28;20211;-75
2022/06/25 08:01:24;;;;;;;8.38;6.32;;;;;;;21.99;61.18;94777.81;5095903;28;20199;-73
2022/06/25 08:03:51;;;;;;;8.02;7.28;;;;;;;22.05;61.20;94773.28;5096897;28;20207;-73
2022/06/25 08:06:18;;;;;;;8.45;7.47;;;;;;;22.15;60.97;94777.09;5095936;28;20193;-75
2022/06/25 08:08:47;;;;;;;10.75;7.38;;;;;;;22.23;61.10;94775.72;5095983;28;20193;-73
2022/06/25 08:11:15;;;;;;;8.40;7.38;;;;;;;22.28;62.25;94773.16;5095986;28;20527;-73
2022/06/25 08:13:42;;;;;;;8.35;7.53;;;;;;;22.37;61.90;94778.22;5096943;28;20192;-73
2022/06/25 08:16:09;;;;;;;8.32;7.60;;;;;;;22.36;61.83;94771.00;5095452;28;20211;-73
2022/06/25 08:18:36;;;;;;;8.90;7.65;;;;;;;22.40;62.00;94768.09;5096420;28;20678;-72
2022/06/25 08:21:04;;;;;;;11.02;10.02;;;;;;;22.49;61.66;94768.28;5096537;28;20185;-72
2022/06/25 08:23:31;;;;;;;11.57;10.38;;;;;;;22.54;61.86;94762.13;5095520;28;20188;-72
2022/06/25 08:25:59;;;;;;;9.25;8.35;;;;;;;22.65;61.69;94767.50;5095865;28;20200;-72
2022/06/25 08:28:25;;;;;;;8.63;7.88;;;;;;;22.75;60.48;94764.44;5095061;28;20702;-71
2022/06/25 08:30:52;;;;;;;8.25;7.65;;;;;;;22.79;60.75;94762.31;5095595;28;20199;-72
2022/06/25 08:33:19;;;;;;;9.00;8.18;;;;;;;22.88;60.64;94766.56;5095080;28;20612;-71
2022/06/25 08:35:46;;;;;;;9.10;7.70;;;;;;;22.90;60.82;94761.25;5095969;28;20199;-72
2022/06/25 08:38:16;;;;;;;9.20;8.40;;;;;;;22.91;61.05;94760.81;5096001;28;20185;-71
2022/06/25 08:40:43;;;;;;;8.25;7.55;;;;;;;23.02;60.10;94763.38;5094521;28;20311;-72
2022/06/25 08:43:11;;;;;;;8.63;7.72;;;;;;;23.14;59.45;94775.97;5094834;28;20208;-71
2022/06/25 08:45:38;;;;;;;8.65;7.95;;;;;;;23.21;60.58;94779.38;5096249;28;20207;-71
2022/06/25 08:48:11;;;;;;;9.80;8.80;;;;;;;23.26;60.44;94773.19;5095159;28;20197;-71
2022/06/25 08:50:38;;;;;;;9.32;8.40;;;;;;;23.34;61.09;94773.78;5095827;28;20192;-72
2022/06/25 08:53:05;;;;;;;8.68;7.88;;;;;;;23.42;61.24;94775.19;5096010;28;20188;-71
2022/06/25 08:55:34;;;;;;;9.93;8.93;;;;;;;23.50;61.29;94775.78;5095569;28;20191;-71
2022/06/25 08:58:01;;;;;;;10.45;9.43;;;;;;;23.48;59.66;94779.03;5095119;28;20211;-71
2022/06/25 09:00:30;;;;;;;10.63;9.00;;;;;;;23.47;60.89;94774.66;5094824;28;20251;-71
2022/06/25 09:02:57;;;;;;;10.75;8.82;;;;;;;23.48;59.95;94779.03;5095139;28;20199;-71
2022/06/25 09:05:29;;;;;;;11.02;8.88;;;;;;;23.52;60.10;94776.91;5095715;28;20188;-72
2022/06/25 09:07:57;;;;;;;9.90;8.95;;;;;;;23.57;60.52;94788.84;5095722;28;20211;-71
2022/06/25 09:10:25;;;;;;;9.63;8.63;;;;;;;23.62;60.63;94782.69;5095701;28;20200;-71
2022/06/25 09:12:52;;;;;;;9.45;8.52;;;;;;;23.74;60.28;94785.56;5095674;28;20181;-72
2022/06/25 09:15:20;;;;;;;9.93;8.98;;;;;;;23.77;58.86;94789.53;5095562;28;20188;-72
2022/06/25 09:17:49;;;;;;;9.60;8.70;;;;;;;23.86;59.90;94783.28;5095539;28;20184;-71
2022/06/25 09:20:17;;;;;;;9.55;8.65;;;;;;;23.95;59.69;94786.22;5095487;28;20204;-72
2022/06/25 09:22:57;;;;;;;11.75;9.73;;;;;;;24.07;63.17;94790.28;5094312;28;20200;-71
2022/06/25 09:25:25;;;;;;;10.55;9.43;;;;;;;24.12;59.18;94796.16;5095487;28;20188;-73
2022/06/25 09:27:52;;;;;;;10.63;9.55;;;;;;;24.17;59.45;94778.69;5095481;28;20278;-73
2022/06/25 09:30:20;;;;;;;12.60;10.63;;;;;;;24.27;58.79;94783.22;5094646;28;20196;-73
2022/06/25 09:32:51;;;;;;;10.45;9.55;;;;;;;24.44;58.86;94786.00;5095446;28;20192;-74
2022/06/25 09:35:30;;;;;;;10.60;9.55;;;;;;;24.52;58.47;94787.34;5095319;28;20203;-74
2022/06/25 09:38:01;;;;;;;10.10;8.85;;;;;;;24.44;59.66;94780.34;5094703;28;20196;-74
2022/06/25 09:40:29;;;;;;;9.45;8.55;;;;;;;24.31;57.44;94787.97;5094658;28;20216;-74
2022/06/25 09:42:57;;;;;;;10.65;9.48;;;;;;;24.17;58.35;94786.38;5094095;28;20196;-74
2022/06/25 09:45:24;;;;;;;9.50;8.68;;;;;;;24.01;56.67;94778.78;5094895;28;20200;-74
2022/06/25 09:47:55;;;;;;;10.00;9.00;;;;;;;23.86;57.50;94778.44;5094535;28;20204;-74
2022/06/25 09:50:22;;;;;;;11.45;9.57;;;;;;;23.85;59.62;94776.03;5094051;28;20623;-74
2022/06/25 09:52:54;;;;;;;10.55;9.55;;;;;;;23.84;59.47;94766.03;5098610;28;20184;-74
2022/06/25 09:55:22;;;;;;;10.25;9.13;;;;;;;23.83;59.77;94773.69;5098464;28;20600;-74
2022/06/25 09:57:49;;;;;;;10.02;8.95;;;;;;;23.94;60.45;94764.91;5099009;28;20196;-73
2022/06/25 10:00:16;;;;;;;9.45;8.50;;;;;;;24.07;58.51;94768.53;5098319;28;20204;-72
2022/06/25 10:02:43;;;;;;;9.70;8.70;;;;;;;24.13;61.00;94765.97;5099392;28;20198;-72
2022/06/25 10:05:12;;;;;;;9.52;8.50;;;;;;;24.27;60.97;94769.13;5098188;28;20531;-72
2022/06/25 10:10:24;;;;;;;9.23;8.32;;;;;;;24.35;59.46;94761.25;5097935;28;20192;-72
2022/06/25 10:12:51;;;;;;;11.00;9.07;;;;;;;24.34;59.81;94758.91;5098364;28;20188;-72
2022/06/25 10:15:20;;;;;;;10.00;9.00;;;;;;;24.45;57.36;94765.00;5098688;28;20620;-72
2022/06/25 10:17:48;;;;;;;11.75;8.43;;;;;;;24.57;59.20;94761.41;5098197;28;20184;-72
2022/06/25 10:20:17;;;;;;;10.32;8.88;;;;;;;24.65;58.16;94761.94;5098590;28;20212;-72
2022/06/25 10:22:46;;;;;;;10.02;9.02;;;;;;;24.72;56.36;94764.53;5098947;28;20180;-73
2022/06/25 10:25:14;;;;;;;8.63;7.65;;;;;;;24.76;58.31;94755.97;5098804;28;20207;-73
2022/06/25 10:27:42;;;;;;;9.75;8.32;;;;;;;24.72;57.11;94745.59;5098630;28;20228;-72
2022/06/25 10:30:10;;;;;;;10.27;8.23;;;;;;;24.90;56.81;94738.56;5098784;28;20188;-72
2022/06/25 10:32:44;;;;;;;11.23;8.88;;;;;;;24.96;55.37;94745.22;5098855;28;20196;-72
2022/06/25 10:35:29;;;;;;;10.45;8.43;;;;;;;24.98;54.78;94732.25;5098221;28;20559;-72
2022/06/25 10:38:04;;;;;;;9.95;8.38;;;;;;;25.02;56.98;94737.78;5097473;28;20249;-71
2022/06/25 10:40:32;;;;;;;9.93;8.63;;;;;;;25.09;58.54;94733.91;5097785;28;20207;-71
2022/06/25 10:43:01;;;;;;;13.10;8.80;;;;;;;25.12;58.53;94725.34;5098535;28;20262;-71
2022/06/25 10:45:55;;;;;;;9.23;7.80;;;;;;;25.21;57.10;94725.44;5097239;28;20204;-72
2022/06/25 10:48:25;;;;;;;9.95;8.65;;;;;;;25.23;55.96;94724.97;5097463;28;20211;-71
2022/06/25 10:50:55;;;;;;;10.88;8.93;;;;;;;25.20;59.23;94728.69;5098580;28;20193;-71
2022/06/25 10:53:26;;;;;;;11.38;9.02;;;;;;;25.28;56.10;94732.09;5097520;28;20605;-71
2022/06/25 10:56:03;;;;;;;10.68;7.97;;;;;;;25.29;56.21;94722.34;5098304;28;20176;-71
2022/06/25 10:58:43;;;;;;;11.20;8.95;;;;;;;25.28;56.73;94713.13;5097861;28;20215;-72
2022/06/25 11:01:29;;;;;;;9.90;8.85;;;;;;;25.24;57.77;94715.28;5097250;28;20639;-72
2022/06/25 11:03:58;;;;;;;10.02;9.02;;;;;;;25.36;57.01;94708.00;5096603;28;20203;-71
2022/06/25 11:06:29;;;;;;;10.93;8.77;;;;;;;25.48;57.72;94700.72;5096822;28;20601;-71
2022/06/25 11:09:04;;;;;;;9.93;8.50;;;;;;;25.43;55.39;94702.88;5097947;28;20274;-71
2022/06/25 11:11:32;;;;;;;11.70;8.20;;;;;;;25.50;56.49;94699.00;5097735;28;20218;-72
2022/06/25 11:14:00;;;;;;;10.25;8.82;;;;;;;25.48;56.39;94698.66;5096920;28;20207;-72
2022/06/25 11:16:27;;;;;;;10.48;8.43;;;;;;;25.54;56.13;94701.72;5096643;28;20683;-71
2022/06/25 11:18:56;;;;;;;15.60;9.18;;;;;;;25.63;58.75;94691.25;5097862;28;20192;-71
2022/06/25 11:21:29;;;;;;;9.18;8.05;;;;;;;25.69;57.46;94689.41;5097860;28;20216;-72
2022/06/25 11:24:11;;;;;;;10.65;8.55;;;;;;;25.62;55.13;94686.84;5096582;28;20199;-71
2022/06/25 11:29:23;;;;;;;9.82;8.25;;;;;;;25.47;54.29;94682.19;5077475;28;20193;-71
2022/06/25 11:31:52;;;;;;;13.43;8.45;;;;;;;25.44;56.52;94678.25;5077236;28;20238;-72
2022/06/25 11:34:19;;;;;;;9.98;7.40;;;;;;;25.63;56.24;94673.50;5076562;28;20252;-71
2022/06/25 11:36:55;;;;;;;10.82;7.05;;;;;;;25.77;53.92;94666.53;5076369;28;20193;-72
2022/06/25 11:39:22;;;;;;;12.27;7.60;;;;;;;25.90;53.37;94656.78;5077269;28;20181;-71
2022/06/25 11:41:50;;;;;;;8.88;7.40;;;;;;;26.01;53.98;94664.84;5076542;28;20217;-72
2022/06/25 11:44:19;;;;;;;13.68;7.03;;;;;;;26.06;53.83;94660.59;5076917;28;20246;-71
2022/06/25 11:46:46;;;;;;;9.10;7.00;;;;;;;26.07;55.12;94662.16;5076413;28;20197;-72
2022/06/25 11:49:13;;;;;;;8.10;7.22;;;;;;;26.10;54.36;94661.25;5077146;28;20318;-72
2022/06/25 11:51:45;;;;;;;10.20;7.30;;;;;;;26.30;52.08;94655.22;5077469;28;20186;-72
2022/06/25 11:54:13;;;;;;;9.25;6.60;;;;;;;26.35;53.05;94660.25;5077004;28;20238;-72